createdAt,value
2018-05-15T00:00:55.612Z,57.20
2018-05-15T00:06:57.292Z,57.30
2018-05-15T00:12:58.972Z,57.10
2018-05-15T00:19:00.681Z,57.30
2018-05-15T00:25:03.078Z,57.00
2018-05-15T00:31:04.934Z,57.00
2018-05-15T00:37:07.335Z,57.00
2018-05-15T00:43:08.980Z,56.90
2018-05-15T00:49:10.632Z,56.80
2018-05-15T00:55:30.781Z,57.30
2018-05-15T01:01:32.482Z,57.00
2018-05-15T01:07:34.145Z,57.60
2018-05-15T01:13:35.853Z,57.80
2018-05-15T01:19:37.530Z,57.50
2018-05-15T01:25:39.197Z,57.70
2018-05-15T01:31:40.828Z,58.40
2018-05-15T01:37:42.478Z,57.80
2018-05-15T01:43:44.126Z,57.90
2018-05-15T01:49:46.518Z,58.70
2018-05-15T01:55:48.161Z,58.00
2018-05-15T02:01:50.626Z,58.00
2018-05-15T02:07:52.366Z,57.90
2018-05-15T02:13:54.074Z,57.70
2018-05-15T02:19:55.744Z,57.70
2018-05-15T02:25:57.426Z,57.70
2018-05-15T02:31:59.908Z,57.50
2018-05-15T02:38:01.599Z,57.50
2018-05-15T02:44:03.243Z,57.40
2018-05-15T02:50:05.625Z,57.80
2018-05-15T02:56:07.333Z,57.50
2018-05-15T03:02:09.038Z,57.60
2018-05-15T03:08:10.695Z,57.30
2018-05-15T03:14:13.292Z,58.30
2018-05-15T03:20:15.345Z,57.80
2018-05-15T03:26:18.192Z,58.30
2018-05-15T03:32:20.135Z,58.40
2018-05-15T03:38:21.793Z,58.50
2018-05-15T03:44:24.303Z,58.40
2018-05-15T03:50:26.203Z,58.40
2018-05-15T03:56:28.132Z,58.20
2018-05-15T04:02:48.249Z,58.10
2018-05-15T04:08:49.899Z,57.90
2018-05-15T04:14:51.912Z,57.70
2018-05-15T04:20:53.715Z,57.60
2018-05-15T04:26:55.640Z,57.50
2018-05-15T04:32:57.318Z,57.50
2018-05-15T04:38:58.980Z,57.60
2018-05-15T04:45:00.643Z,57.60
2018-05-15T04:51:02.416Z,57.70
2018-05-15T04:57:05.551Z,58.40
2018-05-15T05:03:07.195Z,58.40
2018-05-15T05:09:08.908Z,58.70
2018-05-15T05:15:10.585Z,58.30
2018-05-15T05:21:12.307Z,58.20
2018-05-15T05:27:14.801Z,58.70
2018-05-15T05:33:17.245Z,58.10
2018-05-15T05:39:19.760Z,58.10
2018-05-15T05:45:21.576Z,58.10
2018-05-15T05:51:23.380Z,57.90
2018-05-15T05:57:25.036Z,58.00
2018-05-15T06:03:26.980Z,57.90
2018-05-15T06:09:28.699Z,58.30
2018-05-15T06:15:30.583Z,58.20
2018-05-15T06:21:32.348Z,58.30
2018-05-15T06:27:34.058Z,59.20
2018-05-15T06:33:35.689Z,58.90
2018-05-15T06:39:38.081Z,59.00
2018-05-15T06:45:39.798Z,59.00
2018-05-15T06:51:41.467Z,57.90
2018-05-15T06:57:43.434Z,57.40
2018-05-15T07:03:45.857Z,54.00
2018-05-15T07:09:48.358Z,52.30
2018-05-15T07:15:50.143Z,52.20
2018-05-15T07:21:51.765Z,52.20
2018-05-15T07:27:53.575Z,51.70
2018-05-15T07:33:55.229Z,51.90
2018-05-15T07:39:59.623Z,52.10
2018-05-15T07:46:01.305Z,52.10
2018-05-15T07:52:03.698Z,51.20
2018-05-15T07:58:05.329Z,51.20
2018-05-15T08:04:07.370Z,51.10
2018-05-15T08:10:09.854Z,51.30
2018-05-15T08:16:11.788Z,51.30
2018-05-15T08:22:13.827Z,51.60
2018-05-15T08:28:15.543Z,51.60
2018-05-15T08:34:17.637Z,52.30
2018-05-15T08:40:20.159Z,52.90
2018-05-15T08:46:21.950Z,52.60
2018-05-15T08:52:23.870Z,51.50
2018-05-15T08:58:25.696Z,51.60
2018-05-15T09:04:27.468Z,51.60
2018-05-15T09:10:29.610Z,52.40
2018-05-15T09:16:32.147Z,52.00
2018-05-15T09:22:34.651Z,52.30
2018-05-15T09:28:36.412Z,52.30
2018-05-15T09:34:38.358Z,52.30
2018-05-15T09:40:40.091Z,52.50
2018-05-15T09:46:41.813Z,52.20
2018-05-15T09:52:43.531Z,52.30
2018-05-15T09:58:46.262Z,52.60
2018-05-15T10:04:47.984Z,52.50
2018-05-15T10:10:50.460Z,53.00
2018-05-15T10:16:52.131Z,52.40
2018-05-15T10:22:54.689Z,53.10
2018-05-15T10:28:56.342Z,53.10
2018-05-15T10:34:57.987Z,53.20
2018-05-15T10:41:00.378Z,54.40
2018-05-15T10:47:02.051Z,53.60
2018-05-15T10:53:04.530Z,53.90
2018-05-15T10:59:06.278Z,53.70
2018-05-15T11:05:07.940Z,53.80
2018-05-15T11:11:10.515Z,53.80
2018-05-15T11:17:12.187Z,53.70
2018-05-15T11:23:32.420Z,53.70
2018-05-15T11:29:35.128Z,54.20
2018-05-15T11:35:37.887Z,54.30
2018-05-15T11:41:39.987Z,54.20
2018-05-15T11:47:41.697Z,54.60
2018-05-15T11:53:44.017Z,54.60
